Woodbury, CT (06798)

4:44 AM EDT on March 29, 2017 (GMT -0400)
Woodbury, CT | | Change Station

Elev 437 ft 41.55 °N, 73.22 °W | Updated 2 seconds ago

Overcast
Overcast
42.8 °F
Feels Like 43 °F
N
1.2
Wind Variable Wind from ENE
Gusts 4.4 mph

Today
High -- | Low -- °F
--% Chance of Precip.
Yesterday
High -- | Low -- °F
Precip. -- in
Pressure 29.97 in
Visibility 10.0 miles
Clouds Scattered Clouds 1800 ft
Overcast 3000 ft
Windchill 43 °F
Dew Point 42 °F
Humidity 96%
Rainfall 0.00 in
Snow Depth Not available.
6:40 AM 7:15 PM
New Moon, 2% visible
METAR KOXC 290835Z AUTO 32006KT 10SM SCT018 OVC030 06/03 A2997 RMK AO1
Pressure 29.97 in
Visibility 10.0 miles
Clouds Scattered Clouds 1800 ft
Overcast 3000 ft
Windchill 43 °F
Dew Point 42 °F
Humidity 96%
Rainfall 0.00 in
Snow Depth Not available.
6:40 AM 7:15 PM
New Moon, 2% visible
METAR KOXC 290835Z AUTO 32006KT 10SM SCT018 OVC030 06/03 A2997 RMK AO1

Get Severe Weather Alerts

Thanks for signing up!

Be on the lookout for a verification email in your inbox.

You'll start receiving the daily forecast at 8 AM.

×

10-Day Weather Forecast

Almanac

Astronomy

Mar. 29, 2017 Rise Set
Actual Time
Civil Twilight
Nautical Twilight
Astronomical Twilight
Moon
Length of Visible Light
Length of Day
Tomorrow will be .
, % of the Moon is Illuminated

Today's Extremes

State Highs State Lows

Community

WunderPhotos

Upload Photos

1,962,540 photos uploaded!

WunderBlog® & News

Nearby

Air Quality

  Air Quality AQ Index Pollutant
Not available.

Snow Depth

Station Depth Elevation

Earthquake Activity

City Distance Mag. Time & Date
Minimum magnitude displayed is 2.5.

Earthquake Activity

City Distance Mag. Time & Date
Minimum magnitude displayed is 2.5.

Coastal Water Temperatures

Place Temperature

Stations

Nearby Weather Stations

Station Location Temp. Windchill Dew Point Humidity Wind Precip. Elev Updated Type
                   

Watches & Warnings

There are currently no watches in effect.